Sunday, October 22, 2017, 5:16 PM EDT
Back to Local

KCKB, Harrison/marion Regional

Location: Bridgeport, WV, United States Lat: 39.3
Local Time: 5:16 PM EDT (21:16 GMT) Lon: -80.217
Time Zone: US/Eastern Elev: 1204 ft

Show me the last for .
Show Coded

Time T Td Feel RH Dir Speed Gust Alt SLP Vis Weather Sky Remarks
2017-10-22 16:53 79 44 - 29 - Calm - 30.18 30.15 10 CLR None
2017-10-22 15:53 79 45 - 30 330° 3 - 30.20 30.17 10 CLR None
2017-10-22 14:53 78 43 - 28 - Calm - 30.22 30.19 10 CLR None
2017-10-22 13:53 77 45 - 32 Variable 6 - 30.25 30.21 10 CLR 6-hr Min Temp (2pm): 46.0°F
6-hr Max Temp (2pm): 77.0°F
2017-10-22 12:53 76 48 - 37 Variable 5 - 30.29 30.25 10 CLR None
2017-10-22 11:53 72 50 76 45 - Calm - 30.30 30.27 10 CLR None
2017-10-22 10:53 67 52 - 58 - Calm - 30.31 30.29 10 CLR None
2017-10-22 09:53 58 52 - 80 - Calm - 30.32 30.30 10 CLR None
2017-10-22 08:53 51 48 - 89 - Calm - 30.32 30.30 10 BCFG CLR None
2017-10-22 08:13 47 45 - 92 - Calm - 30.31 - 10 BCFG FEW002 None
2017-10-22 07:53 47 45 - 92 - Calm - 30.31 30.29 10 BCFG CLR 6-hr Min Temp (8am): 46.0°F
6-hr Max Temp (8am): 53.1°F
2017-10-22 07:03 47 45 - 92 - Calm - 30.31 - 6 BR FEW002 None
2017-10-22 06:53 47 45 - 92 - Calm - 30.31 30.29 2 BR FEW002 Variable visibility
2017-10-22 06:48 46 45 - 93 - Calm - 30.30 - 1 BR FEW002 Variable visibility
2017-10-22 06:45 46 44 - 92 - Calm - 30.30 - 0 BR VV002 None
2017-10-22 06:38 47 45 - 92 - Calm - 30.30 - 1 BR VV002 None
2017-10-22 05:53 49 46 - 89 - Calm - 30.30 30.27 6 BR CLR None
2017-10-22 04:53 50 47 - 89 - Calm - 30.29 30.26 10 CLR None
2017-10-22 03:53 52 48 - 86 - Calm - 30.27 30.24 10 CLR None
2017-10-22 02:53 52 49 - 89 - Calm - 30.27 30.24 10 CLR None
2017-10-22 01:53 53 49 - 85 - Calm - 30.27 30.24 10 CLR 6-hr Min Temp (2am): 52.0°F
6-hr Max Temp (2am): 64.9°F
2017-10-22 00:53 54 49 - 83 - Calm - 30.29 30.25 10 CLR 24-hr Min Temp (1am): 43.0°F
24-hr Max Temp (1am): 78.1°F
2017-10-21 23:53 55 51 - 86 - Calm - 30.29 30.27 10 CLR None
2017-10-21 22:53 57 52 - 83 - Calm - 30.29 30.27 10 CLR None
2017-10-21 21:53 60 51 - 72 - Calm - 30.29 30.27 10 CLR None
2017-10-21 20:53 62 52 - 69 - Calm - 30.29 30.27 10 CLR None
2017-10-21 19:53 64 51 - 62 - Calm - 30.29 30.27 10 CLR 6-hr Min Temp (8pm): 63.0°F
6-hr Max Temp (8pm): 78.1°F
2017-10-21 18:53 66 51 - 58 - Calm - 30.28 30.26 10 CLR None
2017-10-21 17:53 71 49 76 45 - Calm - 30.27 30.25 10 CLR None

Support USWX by starting your Amazon purchase here.